Poe, Indiana
Current Conditions -  °F | °C
As of 8:54 PM on Thursday 18 Dec 2014 (Local Time) from KFWA Reporting Station
Overcast Overcast  
Wind Chill: 19°   Ceiling: 2300
Heat Index: 27°   Visibility: 10mi
Dew Point: 22°   Wind: 7mph
Humidity: 81%   Direction: 300°WNW
Pressure: 30.23"   Gusts: NA
Location:  40.9649°N, 85.1332°W
Report Text: KFWA 190154Z 30006KT 10SM OVC023 M03/M06 A3023 RMK AO2 SLP249 T10281056
Loading
Personal Weather Stations






























Interactive Weather Map New forecast layout! Learn more

10-Day Weather Forecast

Advertisements
Track Severe Weather on mobile